createdAt,value
2018-09-22T00:04:08.742Z,75.00
2018-09-22T00:09:38.820Z,75.10
2018-09-22T00:15:08.240Z,75.00
2018-09-22T00:20:37.472Z,75.10
2018-09-22T00:26:06.883Z,75.20
2018-09-22T00:31:36.336Z,75.20
2018-09-22T00:37:05.528Z,75.20
2018-09-22T00:42:34.796Z,75.40
2018-09-22T00:48:04.060Z,75.30
2018-09-22T00:53:33.403Z,75.40
2018-09-22T00:59:02.700Z,75.70
2018-09-22T01:04:31.992Z,75.80
2018-09-22T01:10:01.279Z,75.80
2018-09-22T01:15:30.537Z,75.90
2018-09-22T01:20:59.724Z,76.00
2018-09-22T01:26:29.184Z,76.10
2018-09-22T01:31:58.468Z,76.30
2018-09-22T01:37:27.679Z,76.10
2018-09-22T01:42:56.972Z,76.10
2018-09-22T01:48:26.362Z,76.20
2018-09-22T01:53:55.659Z,76.20
2018-09-22T01:59:24.900Z,76.20
2018-09-22T02:04:54.076Z,76.10
2018-09-22T02:10:23.506Z,76.40
2018-09-22T02:15:52.820Z,76.30
2018-09-22T02:21:22.708Z,76.50
2018-09-22T02:26:52.129Z,76.30
2018-09-22T02:32:21.351Z,76.20
2018-09-22T02:37:50.567Z,76.30
2018-09-22T02:43:20.734Z,76.40
2018-09-22T02:48:50.856Z,75.40
2018-09-22T02:54:23.356Z,75.00
2018-09-22T02:59:52.740Z,74.90
2018-09-22T03:05:22.901Z,74.90
2018-09-22T03:10:52.921Z,74.60
2018-09-22T03:16:23.103Z,74.90
2018-09-22T03:21:52.420Z,74.60
2018-09-22T03:27:21.816Z,74.70
2018-09-22T03:32:51.078Z,74.90
2018-09-22T03:38:20.564Z,75.00
2018-09-22T03:43:49.945Z,75.00
2018-09-22T03:49:19.196Z,75.10
2018-09-22T03:54:48.746Z,75.60
2018-09-22T04:00:18.091Z,75.30
2018-09-22T04:05:47.360Z,76.10
2018-09-22T04:11:16.757Z,75.50
2018-09-22T04:16:46.134Z,75.70
2018-09-22T04:22:15.442Z,75.70
2018-09-22T04:27:44.853Z,75.80
2018-09-22T04:33:14.197Z,75.80
2018-09-22T04:38:43.452Z,76.60
2018-09-22T04:44:12.807Z,76.10
2018-09-22T04:49:42.146Z,76.20
2018-09-22T04:55:11.707Z,76.20
2018-09-22T05:00:45.261Z,76.20
2018-09-22T05:06:14.600Z,76.20
2018-09-22T05:11:44.370Z,76.20
2018-09-22T05:17:13.783Z,76.30
2018-09-22T05:22:44.245Z,76.30
2018-09-22T05:28:13.649Z,76.50
2018-09-22T05:33:42.925Z,76.60
2018-09-22T05:39:12.547Z,76.70
2018-09-22T05:44:42.558Z,76.90
2018-09-22T05:50:12.501Z,76.80
2018-09-22T05:55:41.931Z,76.80
2018-09-22T06:01:11.739Z,76.90
2018-09-22T06:06:41.371Z,76.90
2018-09-22T06:12:12.030Z,77.60
2018-09-22T06:17:41.438Z,77.10
2018-09-22T06:23:11.362Z,76.90
2018-09-22T06:28:40.622Z,77.00
2018-09-22T06:34:10.019Z,76.90
2018-09-22T06:39:39.452Z,77.00
2018-09-22T06:45:09.756Z,76.90
2018-09-22T06:50:40.404Z,76.90
2018-09-22T06:56:12.088Z,76.70
2018-09-22T07:01:41.866Z,76.50
2018-09-22T07:07:15.017Z,76.40
2018-09-22T07:12:44.550Z,76.30
2018-09-22T07:18:14.024Z,75.90
2018-09-22T07:23:43.260Z,75.80
2018-09-22T07:29:12.767Z,75.20
2018-09-22T07:34:42.373Z,75.00
2018-09-22T07:40:11.911Z,74.80
2018-09-22T07:45:41.408Z,73.60
2018-09-22T07:51:11.089Z,72.40
2018-09-22T07:56:40.635Z,71.30
2018-09-22T08:02:10.393Z,70.50
2018-09-22T08:07:41.904Z,69.80
2018-09-22T08:13:11.588Z,68.10
2018-09-22T08:18:41.836Z,67.80
2018-09-22T08:24:13.316Z,66.90
2018-09-22T08:29:42.775Z,66.60
2018-09-22T08:35:12.236Z,65.40
2018-09-22T08:40:41.805Z,62.90
2018-09-22T08:46:11.425Z,61.50
2018-09-22T08:51:41.015Z,61.10
2018-09-22T08:58:12.958Z,60.00
2018-09-22T09:03:42.539Z,60.50
2018-09-22T09:09:11.863Z,58.70
2018-09-22T09:14:41.250Z,58.30
2018-09-22T09:20:10.588Z,59.00
2018-09-22T09:25:40.089Z,57.70
2018-09-22T09:31:09.548Z,57.50
2018-09-22T09:36:39.145Z,56.40
2018-09-22T09:42:09.188Z,56.20
2018-09-22T09:47:38.881Z,55.70
2018-09-22T09:53:08.784Z,56.10
2018-09-22T09:58:39.158Z,55.40
2018-09-22T10:04:08.420Z,55.00
2018-09-22T10:09:38.841Z,55.00
2018-09-22T10:15:08.220Z,54.70
2018-09-22T10:20:38.662Z,53.40
2018-09-22T10:26:07.917Z,53.40
2018-09-22T10:31:37.569Z,53.80
2018-09-22T10:37:06.880Z,53.30
2018-09-22T10:42:36.212Z,52.30
2018-09-22T10:48:09.895Z,51.60
2018-09-22T10:53:41.948Z,51.60
2018-09-22T10:59:11.657Z,52.30
2018-09-22T11:04:41.406Z,51.50
2018-09-22T11:10:10.971Z,51.90
2018-09-22T11:15:40.571Z,51.40
2018-09-22T11:21:11.126Z,50.70
2018-09-22T11:26:40.736Z,51.10
2018-09-22T11:32:11.481Z,50.60
2018-09-22T11:37:40.983Z,50.40
2018-09-22T11:43:10.814Z,50.20
2018-09-22T11:48:40.321Z,49.80
2018-09-22T11:54:11.329Z,50.80
2018-09-22T11:59:40.907Z,49.40
2018-09-22T12:05:10.662Z,49.50
2018-09-22T12:10:41.026Z,49.40
2018-09-22T12:16:12.873Z,49.30
2018-09-22T12:21:42.406Z,50.00
2018-09-22T12:27:13.039Z,48.70
2018-09-22T12:32:42.696Z,48.20
2018-09-22T12:38:12.113Z,49.60
2018-09-22T12:43:41.849Z,48.30
2018-09-22T12:49:13.408Z,49.00
2018-09-22T12:54:43.678Z,45.90
2018-09-22T13:00:17.510Z,45.10
2018-09-22T13:05:46.924Z,43.60
2018-09-22T13:11:16.531Z,41.00
2018-09-22T13:16:45.826Z,42.00
2018-09-22T13:22:20.781Z,42.10
2018-09-22T13:27:50.282Z,44.10
2018-09-22T13:33:19.731Z,43.00
2018-09-22T13:38:49.120Z,42.80
2018-09-22T13:44:19.607Z,41.90
2018-09-22T13:49:54.837Z,40.70
2018-09-22T13:55:28.347Z,39.10
2018-09-22T14:00:57.717Z,37.20
2018-09-22T14:06:27.029Z,36.00
2018-09-22T14:11:56.465Z,32.90
2018-09-22T14:17:25.799Z,30.70
2018-09-22T14:22:55.122Z,30.60
2018-09-22T14:28:24.609Z,30.30
2018-09-22T14:33:54.563Z,29.60
2018-09-22T14:39:26.412Z,29.90
2018-09-22T14:44:55.826Z,28.40
2018-09-22T14:50:29.003Z,28.90
2018-09-22T14:55:59.320Z,28.20
2018-09-22T15:01:28.624Z,27.30
2018-09-22T15:06:58.140Z,29.60
2018-09-22T15:12:27.697Z,32.20
2018-09-22T15:17:57.092Z,34.20
2018-09-22T15:23:26.454Z,35.90
2018-09-22T15:28:56.802Z,37.00
2018-09-22T15:34:26.048Z,37.60
2018-09-22T15:39:55.304Z,38.50
2018-09-22T15:45:24.765Z,38.50
2018-09-22T15:50:54.082Z,40.10
2018-09-22T15:56:23.807Z,40.40
2018-09-22T16:01:53.120Z,40.90
2018-09-22T16:07:28.653Z,41.50
2018-09-22T16:12:58.275Z,41.60
2018-09-22T16:18:27.620Z,42.40
2018-09-22T16:23:56.791Z,43.10
2018-09-22T16:29:25.983Z,43.60
2018-09-22T16:34:55.242Z,44.60
2018-09-22T16:40:24.563Z,45.20
2018-09-22T16:45:53.837Z,45.70
2018-09-22T16:51:23.071Z,46.10
2018-09-22T16:56:52.491Z,46.50
2018-09-22T17:02:21.815Z,46.90
2018-09-22T17:07:51.177Z,47.30
2018-09-22T17:13:20.472Z,47.90
2018-09-22T17:18:49.792Z,48.30
2018-09-22T17:24:19.229Z,48.70
2018-09-22T17:29:48.873Z,48.90
2018-09-22T17:35:18.637Z,49.20
2018-09-22T17:40:48.370Z,49.70
2018-09-22T17:46:18.002Z,49.90
2018-09-22T17:51:47.564Z,50.10
2018-09-22T17:57:16.896Z,50.40
2018-09-22T18:02:46.568Z,50.60
2018-09-22T18:08:16.127Z,51.10
2018-09-22T18:13:45.673Z,51.10
2018-09-22T18:19:15.090Z,51.40
2018-09-22T18:24:44.601Z,51.80
2018-09-22T18:30:14.983Z,52.00
2018-09-22T18:35:44.687Z,52.30
2018-09-22T18:41:14.113Z,52.50
2018-09-22T18:46:43.736Z,53.10
2018-09-22T18:52:13.038Z,53.60
2018-09-22T18:57:42.496Z,54.10
2018-09-22T19:03:11.853Z,55.00
2018-09-22T19:08:42.239Z,55.90
2018-09-22T19:14:15.211Z,56.40
2018-09-22T19:19:50.784Z,56.90
2018-09-22T19:25:22.333Z,57.30
2018-09-22T19:30:52.755Z,58.80
2018-09-22T19:36:29.998Z,58.70
2018-09-22T19:42:04.664Z,58.60
2018-09-22T19:47:38.115Z,59.00
2018-09-22T19:53:07.368Z,59.40
2018-09-22T19:58:37.610Z,59.30
2018-09-22T20:04:06.827Z,59.80
2018-09-22T20:09:36.012Z,59.80
2018-09-22T20:15:05.347Z,59.80
2018-09-22T20:20:34.616Z,59.90
2018-09-22T20:26:03.849Z,60.10
2018-09-22T20:31:33.330Z,60.10
2018-09-22T20:37:02.704Z,60.60
2018-09-22T20:42:32.301Z,61.00
2018-09-22T20:48:01.549Z,61.30
2018-09-22T20:53:30.768Z,62.00
2018-09-22T20:59:00.671Z,62.30
2018-09-22T21:04:30.057Z,62.70
2018-09-22T21:09:59.387Z,63.10
2018-09-22T21:15:28.723Z,63.70
2018-09-22T21:20:58.064Z,64.00
2018-09-22T21:26:29.501Z,64.70
2018-09-22T21:32:10.312Z,65.70
2018-09-22T21:37:39.903Z,65.60
2018-09-22T21:43:24.360Z,65.50
2018-09-22T21:48:54.327Z,65.70
2018-09-22T21:54:24.328Z,65.90
2018-09-22T21:59:54.044Z,66.00
2018-09-22T22:05:23.722Z,66.00
2018-09-22T22:10:54.158Z,66.50
2018-09-22T22:16:23.549Z,66.70
2018-09-22T22:21:52.882Z,66.90
2018-09-22T22:27:22.182Z,67.40
2018-09-22T22:32:51.396Z,68.10
2018-09-22T22:38:20.803Z,68.40
2018-09-22T22:43:50.201Z,68.90
2018-09-22T22:49:19.508Z,69.30
2018-09-22T22:54:48.768Z,69.50
2018-09-22T23:00:18.096Z,69.80
2018-09-22T23:05:47.409Z,69.80
2018-09-22T23:11:16.700Z,69.90
2018-09-22T23:16:46.133Z,70.30
2018-09-22T23:22:15.388Z,70.00
2018-09-22T23:27:44.751Z,70.50
2018-09-22T23:33:14.229Z,70.40
2018-09-22T23:38:43.746Z,70.50
2018-09-22T23:44:13.225Z,70.30
2018-09-22T23:49:42.709Z,70.00
2018-09-22T23:55:12.180Z,70.30
